createdAt,value
2022-09-05T00:02:04.117Z,3.88
2022-09-05T00:04:58.278Z,3.88
2022-09-05T00:07:58.378Z,4.18
2022-09-05T00:10:37.261Z,3.67
2022-09-05T00:13:09.878Z,3.55
2022-09-05T00:15:48.480Z,4.10
2022-09-05T00:23:29.025Z,3.45
2022-09-05T00:24:30.243Z,4.03
2022-09-05T00:24:54.767Z,4.28
2022-09-05T00:27:51.096Z,4.18
2022-09-05T00:31:08.795Z,4.22
2022-09-05T00:33:17.898Z,4.25
2022-09-05T00:35:53.460Z,4.03
2022-09-05T00:38:32.135Z,3.97
2022-09-05T00:41:13.373Z,4.00
2022-09-05T00:43:48.061Z,4.55
2022-09-05T00:46:37.079Z,4.32
2022-09-05T00:49:40.229Z,4.00
2022-09-05T00:52:30.764Z,3.63
2022-09-05T00:55:05.997Z,4.25
2022-09-05T00:57:50.545Z,3.97
2022-09-05T01:00:35.808Z,4.03
2022-09-05T01:03:29.858Z,4.22
2022-09-05T01:10:03.391Z,4.47
2022-09-05T01:12:57.854Z,4.40
2022-09-05T01:15:33.229Z,4.22
2022-09-05T01:18:07.993Z,3.85
2022-09-05T01:20:40.254Z,4.15
2022-09-05T01:23:24.796Z,4.38
2022-09-05T01:26:06.723Z,3.97
2022-09-05T01:31:34.395Z,4.43
2022-09-05T01:34:31.437Z,4.15
2022-09-05T01:37:03.291Z,5.22
2022-09-05T01:40:14.903Z,4.47
2022-09-05T01:43:25.673Z,4.13
2022-09-05T01:45:59.290Z,5.00
2022-09-05T01:48:30.247Z,4.22
2022-09-05T01:51:29.479Z,4.20
2022-09-05T01:54:25.579Z,4.78
2022-09-05T01:57:21.142Z,4.00
2022-09-05T02:00:08.980Z,4.85
2022-09-05T02:02:50.428Z,4.50
2022-09-05T02:05:53.702Z,5.07
2022-09-05T02:08:57.378Z,4.65
2022-09-05T02:11:52.633Z,4.70
2022-09-05T02:14:27.064Z,4.13
2022-09-05T02:20:30.095Z,4.63
2022-09-05T02:22:56.498Z,4.18
2022-09-05T02:26:02.024Z,5.22
2022-09-05T02:28:51.245Z,4.20
2022-09-05T02:31:34.095Z,4.95
2022-09-05T02:34:11.927Z,5.05
2022-09-05T02:37:10.853Z,4.80
2022-09-05T02:45:00.456Z,4.40
2022-09-05T02:45:09.926Z,4.97
2022-09-05T02:45:44.671Z,4.90
2022-09-05T02:48:27.722Z,4.90
2022-09-05T02:57:30.047Z,5.18
2022-09-05T02:57:42.483Z,4.80
2022-09-05T02:58:06.202Z,5.35
2022-09-05T03:00:21.217Z,4.72
2022-09-05T03:03:26.108Z,5.18
2022-09-05T03:06:06.033Z,5.10
2022-09-05T03:09:09.839Z,5.15
2022-09-05T03:12:00.002Z,5.05
2022-09-05T03:15:18.704Z,5.55
2022-09-05T03:18:31.704Z,4.65
2022-09-05T03:21:20.095Z,5.22
2022-09-05T03:23:55.484Z,5.28
2022-09-05T03:26:43.519Z,5.20
2022-09-05T03:29:47.622Z,4.65
2022-09-05T03:32:28.413Z,4.97
2022-09-05T03:35:33.152Z,5.43
2022-09-05T03:38:22.234Z,5.25
2022-09-05T03:41:30.250Z,4.80
2022-09-05T03:44:48.989Z,5.10
2022-09-05T03:47:47.422Z,4.55
2022-09-05T03:57:06.232Z,4.88
2022-09-05T03:57:16.380Z,5.10
2022-09-05T03:57:23.406Z,4.65
2022-09-05T03:59:53.642Z,5.22
2022-09-05T04:05:28.406Z,4.95
2022-09-05T04:08:16.627Z,4.90
2022-09-05T04:08:42.425Z,4.85
2022-09-05T04:11:17.284Z,4.90
2022-09-05T04:13:52.335Z,4.25
2022-09-05T04:16:18.847Z,4.75
2022-09-05T04:18:51.718Z,5.03
2022-09-05T04:21:29.240Z,4.75
2022-09-05T04:24:14.219Z,5.18
2022-09-05T04:26:46.701Z,5.07
2022-09-05T04:29:31.149Z,4.20
2022-09-05T04:32:23.852Z,4.82
2022-09-05T04:35:04.266Z,5.30
2022-09-05T04:37:55.073Z,4.38
2022-09-05T04:40:39.407Z,4.40
2022-09-05T04:43:24.957Z,4.47
2022-09-05T04:45:58.484Z,4.40
2022-09-05T04:48:34.146Z,5.05
2022-09-05T04:51:12.965Z,4.45
2022-09-05T04:54:16.900Z,4.88
2022-09-05T04:56:49.369Z,4.00
2022-09-05T05:01:42.070Z,4.68
2022-09-05T05:06:09.768Z,4.20
2022-09-05T05:06:16.109Z,4.47
2022-09-05T05:08:43.597Z,4.43
2022-09-05T05:17:40.367Z,4.63
2022-09-05T05:18:01.254Z,4.40
2022-09-05T05:18:36.728Z,4.00
2022-09-05T05:21:08.019Z,4.47
2022-09-05T05:23:56.432Z,4.50
2022-09-05T05:26:29.582Z,4.13
2022-09-05T05:29:01.040Z,4.32
2022-09-05T05:31:31.971Z,3.85
2022-09-05T05:34:06.136Z,4.25
2022-09-05T05:37:25.235Z,3.80
2022-09-05T05:40:04.108Z,4.45
2022-09-05T05:42:31.155Z,4.70
2022-09-05T05:44:59.132Z,4.40
2022-09-05T05:47:49.373Z,4.68
2022-09-05T05:50:33.545Z,4.70
2022-09-05T05:53:40.982Z,4.45
2022-09-05T05:56:32.183Z,5.15
2022-09-05T05:59:18.465Z,3.88
2022-09-05T06:02:15.065Z,3.30
2022-09-05T06:05:03.783Z,4.00
2022-09-05T06:10:39.075Z,3.75
2022-09-05T06:14:48.308Z,4.93
2022-09-05T06:15:06.397Z,4.22
2022-09-05T06:16:43.283Z,3.95
2022-09-05T06:19:18.826Z,3.95
2022-09-05T06:22:09.121Z,3.88
2022-09-05T06:25:16.266Z,4.22
2022-09-05T06:28:18.129Z,3.78
2022-09-05T06:33:48.871Z,3.90
2022-09-05T06:36:52.427Z,3.75
2022-09-05T06:39:40.969Z,4.22
2022-09-05T06:42:50.515Z,3.75
2022-09-05T06:45:46.672Z,4.05
2022-09-05T06:48:45.695Z,3.65
2022-09-05T06:51:35.670Z,4.05
2022-09-05T06:54:07.788Z,4.07
2022-09-05T06:57:04.687Z,3.70
2022-09-05T07:00:19.575Z,4.40
2022-09-05T07:03:30.608Z,3.45
2022-09-05T07:06:49.439Z,3.63
2022-09-05T07:09:44.834Z,4.00
2022-09-05T07:12:23.758Z,3.55
2022-09-05T07:15:16.673Z,3.20
2022-09-05T07:18:10.431Z,3.67
2022-09-05T07:21:15.748Z,3.53
2022-09-05T07:24:09.159Z,3.75
2022-09-05T07:26:54.167Z,3.60
2022-09-05T07:29:53.442Z,3.40
2022-09-05T07:32:31.725Z,3.72
2022-09-05T07:35:02.462Z,3.40
2022-09-05T07:37:44.222Z,3.40
2022-09-05T07:43:18.720Z,3.42
2022-09-05T07:45:58.153Z,3.63
2022-09-05T07:48:34.881Z,3.15
2022-09-05T07:56:19.190Z,3.88
2022-09-05T07:56:50.756Z,3.78
2022-09-05T07:59:50.828Z,3.67
2022-09-05T08:02:17.437Z,3.77
2022-09-05T08:04:44.639Z,4.03
2022-09-05T08:07:47.650Z,3.85
2022-09-05T08:10:15.670Z,4.00
2022-09-05T08:13:23.800Z,3.95
2022-09-05T08:16:09.701Z,3.58
2022-09-05T08:19:04.077Z,3.63
2022-09-05T08:21:42.461Z,3.58
2022-09-05T08:24:36.622Z,3.60
2022-09-05T08:27:24.746Z,3.38
2022-09-05T08:30:26.559Z,3.55
2022-09-05T08:33:11.034Z,3.50
2022-09-05T08:36:00.704Z,4.20
2022-09-05T08:38:37.420Z,3.75
2022-09-05T08:41:43.117Z,3.78
2022-09-05T08:46:40.816Z,3.92
2022-09-05T08:47:45.022Z,3.78
2022-09-05T08:50:53.997Z,3.40
2022-09-05T08:54:05.478Z,3.78
2022-09-05T08:56:44.178Z,3.50
2022-09-05T08:59:31.741Z,3.53
2022-09-05T09:02:46.519Z,3.40
2022-09-05T09:05:14.144Z,3.05
2022-09-05T09:08:15.803Z,3.55
2022-09-05T09:10:59.405Z,3.35
2022-09-05T09:13:54.742Z,3.33
2022-09-05T09:16:34.017Z,3.53
2022-09-05T09:19:16.862Z,3.78
2022-09-05T09:21:47.621Z,5.18
2022-09-05T09:24:39.334Z,3.65
2022-09-05T09:29:39.922Z,3.15
2022-09-05T09:32:17.317Z,3.07
2022-09-05T09:35:06.324Z,3.67
2022-09-05T09:37:55.351Z,3.60
2022-09-05T09:41:00.616Z,3.30
2022-09-05T09:44:13.763Z,3.25
2022-09-05T09:46:46.250Z,3.20
2022-09-05T09:49:33.870Z,3.25
2022-09-05T09:52:20.824Z,3.55
2022-09-05T09:55:28.639Z,2.92
2022-09-05T09:58:09.585Z,2.67
2022-09-05T10:00:51.136Z,3.28
2022-09-05T10:10:35.429Z,3.17
2022-09-05T10:10:47.955Z,2.70
2022-09-05T10:11:04.023Z,2.83
2022-09-05T10:13:41.393Z,3.22
2022-09-05T10:16:27.302Z,2.50
2022-09-05T10:19:15.585Z,3.13
2022-09-05T10:25:12.152Z,2.67
2022-09-05T10:28:13.845Z,2.85
2022-09-05T10:32:52.029Z,3.17
2022-09-05T10:35:17.978Z,2.65
2022-09-05T10:36:23.418Z,2.80
2022-09-05T10:39:07.979Z,2.50
2022-09-05T10:42:02.668Z,2.92
2022-09-05T10:44:53.694Z,2.53
2022-09-05T10:47:35.759Z,2.50
2022-09-05T10:50:20.811Z,2.50
2022-09-05T10:52:50.000Z,2.50
2022-09-05T10:55:57.303Z,2.05
2022-09-05T11:01:33.379Z,2.40
2022-09-05T11:02:27.976Z,2.20
2022-09-05T11:04:56.189Z,2.72
2022-09-05T11:07:39.860Z,2.38
2022-09-05T11:10:09.167Z,2.42
2022-09-05T11:13:00.016Z,2.85
2022-09-05T11:16:03.681Z,2.50
2022-09-05T11:18:57.666Z,2.58
2022-09-05T11:21:43.041Z,2.40
2022-09-05T11:24:31.815Z,2.85
2022-09-05T11:27:24.425Z,2.53
2022-09-05T11:29:58.155Z,2.40
2022-09-05T11:36:27.595Z,2.55
2022-09-05T11:39:47.013Z,2.75
2022-09-05T11:40:26.594Z,2.78
2022-09-05T11:41:25.114Z,2.97
2022-09-05T11:44:25.054Z,2.63
2022-09-05T11:47:30.201Z,2.50
2022-09-05T11:50:27.603Z,3.05
2022-09-05T11:53:47.953Z,2.70
2022-09-05T11:56:45.882Z,2.72
2022-09-05T11:59:39.876Z,2.67
2022-09-05T12:02:49.543Z,3.17
2022-09-05T12:05:50.216Z,2.63
2022-09-05T12:08:46.555Z,2.75
2022-09-05T12:11:53.475Z,2.55
2022-09-05T12:14:36.223Z,2.60
2022-09-05T12:17:35.402Z,2.75
2022-09-05T12:20:27.996Z,2.85
2022-09-05T12:23:51.407Z,2.67
2022-09-05T12:27:40.396Z,2.78
2022-09-05T12:29:33.553Z,2.70
2022-09-05T12:33:32.310Z,3.05
2022-09-05T12:36:12.860Z,3.40
2022-09-05T12:40:55.409Z,3.45
2022-09-05T12:41:44.797Z,3.28
2022-09-05T12:44:39.772Z,2.67
2022-09-05T12:46:53.564Z,3.60
2022-09-05T12:49:20.017Z,3.25
2022-09-05T12:52:00.259Z,3.05
2022-09-05T12:54:34.666Z,3.35
2022-09-05T13:02:22.255Z,3.47
2022-09-05T13:03:06.813Z,3.25
2022-09-05T13:03:27.923Z,3.58
2022-09-05T13:06:10.455Z,3.30
2022-09-05T13:09:00.293Z,3.53
2022-09-05T13:14:57.657Z,3.47
2022-09-05T13:15:08.095Z,3.33
2022-09-05T13:17:15.712Z,3.30
2022-09-05T13:19:51.634Z,3.60
2022-09-05T13:22:21.425Z,3.10
2022-09-05T13:24:58.497Z,3.88
2022-09-05T13:27:31.890Z,3.05
2022-09-05T13:33:01.947Z,3.65
2022-09-05T13:38:13.076Z,3.42
2022-09-05T13:38:28.979Z,3.75
2022-09-05T13:39:10.873Z,3.33
2022-09-05T13:41:51.092Z,3.05
2022-09-05T13:44:26.337Z,3.53
2022-09-05T13:47:51.823Z,3.35
2022-09-05T13:50:43.958Z,3.53
2022-09-05T13:53:46.229Z,4.45
2022-09-05T13:56:23.787Z,3.40
2022-09-05T13:59:04.498Z,3.20
2022-09-05T14:02:24.485Z,3.73
2022-09-05T14:05:13.658Z,3.78
2022-09-05T14:07:56.134Z,3.85
2022-09-05T14:10:35.652Z,3.65
2022-09-05T14:13:15.945Z,3.70
2022-09-05T14:15:55.588Z,3.22
2022-09-05T14:19:12.516Z,3.97
2022-09-05T14:21:42.008Z,3.53
2022-09-05T14:24:17.428Z,3.92
2022-09-05T14:27:00.398Z,3.17
2022-09-05T14:29:38.927Z,3.22
2022-09-05T14:37:34.567Z,3.20
2022-09-05T14:37:40.491Z,3.05
2022-09-05T14:38:29.099Z,3.72
2022-09-05T14:41:28.276Z,3.47
2022-09-05T14:44:10.435Z,3.70
2022-09-05T14:47:02.673Z,3.30
2022-09-05T14:50:07.159Z,3.30
2022-09-05T14:52:43.328Z,3.35
2022-09-05T15:02:44.985Z,3.33
2022-09-05T15:02:50.864Z,3.10
2022-09-05T15:06:37.252Z,3.45
2022-09-05T15:12:16.353Z,3.58
2022-09-05T15:12:21.805Z,3.95
2022-09-05T15:15:19.062Z,3.63
2022-09-05T15:17:51.141Z,3.58
2022-09-05T15:20:33.554Z,3.53
2022-09-05T15:23:11.064Z,3.75
2022-09-05T15:25:48.345Z,3.60
2022-09-05T15:28:30.955Z,3.47
2022-09-05T15:31:00.799Z,3.40
2022-09-05T15:33:30.048Z,3.45
2022-09-05T15:35:58.271Z,3.60
2022-09-05T15:38:30.772Z,3.75
2022-09-05T15:41:20.618Z,3.55
2022-09-05T15:43:51.954Z,3.65
2022-09-05T15:46:24.785Z,3.85
2022-09-05T15:48:58.372Z,3.63
2022-09-05T15:51:50.626Z,4.00
2022-09-05T15:54:44.418Z,3.00
2022-09-05T15:57:21.302Z,3.28
2022-09-05T15:59:52.894Z,3.83
2022-09-05T16:02:26.442Z,3.65
2022-09-05T16:10:34.229Z,3.40
2022-09-05T16:10:39.493Z,3.28
2022-09-05T16:11:57.891Z,3.65
2022-09-05T16:14:39.397Z,3.17
2022-09-05T16:23:13.392Z,4.10
2022-09-05T16:23:32.266Z,3.20
2022-09-05T16:23:45.901Z,3.22
2022-09-05T16:26:25.684Z,3.22
2022-09-05T16:29:06.959Z,3.22
2022-09-05T16:31:51.401Z,3.30
2022-09-05T16:34:38.902Z,3.28
2022-09-05T16:37:19.740Z,3.20
2022-09-05T16:40:05.554Z,3.63
2022-09-05T16:42:47.840Z,3.22
2022-09-05T16:45:20.889Z,3.33
2022-09-05T16:48:10.252Z,3.58
2022-09-05T16:50:51.553Z,3.03
2022-09-05T16:56:02.802Z,3.17
2022-09-05T16:58:50.449Z,3.25
2022-09-05T17:01:55.004Z,3.45
2022-09-05T17:05:04.985Z,2.95
2022-09-05T17:08:09.118Z,3.25
2022-09-05T17:11:03.494Z,3.35
2022-09-05T17:13:40.401Z,3.40
2022-09-05T17:16:11.983Z,3.22
2022-09-05T17:21:18.804Z,3.47
2022-09-05T17:29:15.518Z,3.72
2022-09-05T17:29:27.753Z,3.45
2022-09-05T17:32:57.705Z,3.17
2022-09-05T17:35:53.777Z,3.47
2022-09-05T17:38:51.719Z,2.80
2022-09-05T17:41:53.708Z,3.00
2022-09-05T17:47:07.138Z,3.45
2022-09-05T17:49:47.639Z,3.83
2022-09-05T17:52:16.609Z,4.07
2022-09-05T17:54:50.245Z,3.63
2022-09-05T17:57:28.844Z,3.75
2022-09-05T18:00:11.945Z,4.05
2022-09-05T18:02:56.903Z,3.92
2022-09-05T18:06:03.678Z,3.58
2022-09-05T18:08:49.939Z,3.45
2022-09-05T18:11:25.477Z,3.50
2022-09-05T18:14:24.631Z,3.47
2022-09-05T18:17:36.275Z,3.50
2022-09-05T18:19:44.000Z,3.88
2022-09-05T18:25:13.873Z,3.33
2022-09-05T18:28:05.350Z,4.00
2022-09-05T18:33:53.510Z,3.53
2022-09-05T18:35:57.746Z,3.75
2022-09-05T18:38:50.802Z,4.00
2022-09-05T18:44:12.095Z,3.75
2022-09-05T18:46:43.222Z,3.63
2022-09-05T18:50:24.292Z,3.88
2022-09-05T18:52:30.163Z,3.70
2022-09-05T18:56:09.339Z,4.07
2022-09-05T18:58:04.374Z,3.83
2022-09-05T19:00:43.959Z,3.70
2022-09-05T19:03:28.832Z,4.70
2022-09-05T19:06:35.090Z,3.50
2022-09-05T19:09:02.339Z,4.05
2022-09-05T19:14:25.972Z,3.63
2022-09-05T19:17:01.387Z,3.67
2022-09-05T19:19:31.310Z,3.70
2022-09-05T19:22:49.986Z,4.00
2022-09-05T19:24:48.818Z,3.53
2022-09-05T19:32:26.904Z,3.75
2022-09-05T19:36:55.343Z,4.35
2022-09-05T19:36:57.533Z,3.78
2022-09-05T19:37:06.618Z,4.47
2022-09-05T19:39:15.338Z,3.97
2022-09-05T19:47:25.845Z,4.10
2022-09-05T19:47:40.611Z,3.60
2022-09-05T19:47:48.039Z,3.63
2022-09-05T19:49:58.003Z,4.18
2022-09-05T19:52:24.697Z,3.72
2022-09-05T19:54:54.785Z,4.30
2022-09-05T19:57:21.507Z,4.13
2022-09-05T19:59:54.129Z,4.03
2022-09-05T20:02:26.900Z,3.67
2022-09-05T20:04:57.263Z,4.10
2022-09-05T20:07:26.629Z,4.38
2022-09-05T20:09:55.707Z,4.25
2022-09-05T20:12:28.080Z,3.80
2022-09-05T20:14:54.815Z,3.72
2022-09-05T20:17:31.059Z,3.72
2022-09-05T20:20:25.435Z,4.15
2022-09-05T20:22:59.412Z,4.65
2022-09-05T20:25:36.807Z,4.45
2022-09-05T20:28:12.884Z,4.10
2022-09-05T20:30:50.820Z,3.90
2022-09-05T20:33:29.462Z,4.15
2022-09-05T20:42:12.077Z,4.03
2022-09-05T20:43:20.296Z,3.75
2022-09-05T20:43:21.590Z,4.07
2022-09-05T20:44:48.479Z,3.85
2022-09-05T20:51:29.507Z,3.60
2022-09-05T20:54:18.234Z,3.80
2022-09-05T20:54:27.128Z,3.38
2022-09-05T20:56:07.784Z,3.58
2022-09-05T20:58:37.126Z,4.20
2022-09-05T21:01:21.554Z,3.97
2022-09-05T21:04:03.196Z,4.20
2022-09-05T21:06:37.171Z,3.50
2022-09-05T21:09:24.314Z,4.03
2022-09-05T21:11:55.730Z,3.55
2022-09-05T21:14:24.406Z,3.40
2022-09-05T21:17:15.798Z,3.90
2022-09-05T21:22:20.782Z,4.00
2022-09-05T21:24:48.109Z,3.58
2022-09-05T21:27:22.965Z,3.83
2022-09-05T21:29:59.326Z,3.45
2022-09-05T21:32:37.946Z,3.42
2022-09-05T21:35:31.118Z,3.13
2022-09-05T21:37:56.568Z,3.20
2022-09-05T21:40:23.408Z,3.50
2022-09-05T21:47:05.519Z,3.65
2022-09-05T21:47:40.638Z,3.85
2022-09-05T21:48:24.314Z,3.72
2022-09-05T21:50:50.969Z,3.05
2022-09-05T21:59:13.600Z,3.45
2022-09-05T21:59:17.483Z,3.58
2022-09-05T21:59:29.498Z,3.00
2022-09-05T22:01:53.155Z,2.95
2022-09-05T22:04:21.089Z,2.92
2022-09-05T22:06:48.773Z,3.10
2022-09-05T22:09:17.810Z,3.38
2022-09-05T22:11:49.993Z,3.17
2022-09-05T22:14:18.231Z,2.60
2022-09-05T22:16:47.283Z,2.80
2022-09-05T22:19:21.355Z,2.85
2022-09-05T22:21:50.098Z,2.65
2022-09-05T22:24:17.014Z,3.13
2022-09-05T22:27:11.124Z,2.92
2022-09-05T22:29:34.937Z,3.10
2022-09-05T22:32:01.646Z,2.83
2022-09-05T22:34:28.159Z,2.75
2022-09-05T22:36:56.056Z,2.70
2022-09-05T22:39:36.233Z,2.17
2022-09-05T22:42:10.346Z,2.25
2022-09-05T22:44:39.465Z,2.95
2022-09-05T22:47:07.818Z,2.20
2022-09-05T22:49:36.376Z,2.97
2022-09-05T22:52:07.731Z,1.92
2022-09-05T22:54:35.835Z,2.40
2022-09-05T22:57:03.664Z,2.38
2022-09-05T22:59:30.373Z,2.17
2022-09-05T23:01:57.055Z,2.13
2022-09-05T23:04:23.851Z,1.80
2022-09-05T23:06:50.387Z,2.08
2022-09-05T23:09:16.974Z,1.83
2022-09-05T23:11:43.501Z,2.40
2022-09-05T23:14:10.043Z,2.30
2022-09-05T23:16:36.532Z,2.30
2022-09-05T23:19:03.024Z,2.10
2022-09-05T23:21:29.558Z,2.05
2022-09-05T23:23:56.103Z,1.80
2022-09-05T23:26:22.569Z,2.10
2022-09-05T23:28:49.091Z,1.73
2022-09-05T23:31:15.661Z,1.58
2022-09-05T23:33:42.191Z,1.80
2022-09-05T23:36:13.517Z,2.20
2022-09-05T23:38:42.159Z,2.58
2022-09-05T23:41:12.135Z,1.80
2022-09-05T23:43:38.648Z,1.80
2022-09-05T23:46:05.464Z,1.70
2022-09-05T23:48:32.265Z,2.15
2022-09-05T23:51:13.586Z,1.77
2022-09-05T23:53:40.827Z,1.88
2022-09-05T23:56:09.367Z,1.67
2022-09-05T23:58:36.808Z,1.60
